createdAt,value
2017-07-20T00:00:11.226Z,11.57
2017-07-20T00:01:11.219Z,11.54
2017-07-20T00:02:10.907Z,11.66
2017-07-20T00:03:10.914Z,11.59
2017-07-20T00:04:11.192Z,11.62
2017-07-20T00:05:10.870Z,11.54
2017-07-20T00:06:10.864Z,11.49
2017-07-20T00:07:11.162Z,11.56
2017-07-20T00:08:11.149Z,11.46
2017-07-20T00:09:11.148Z,11.48
2017-07-20T00:10:11.137Z,11.44
2017-07-20T00:11:11.131Z,11.54
2017-07-20T00:12:10.812Z,11.6
2017-07-20T00:13:11.124Z,11.44
2017-07-20T00:14:11.105Z,11.45
2017-07-20T00:15:11.101Z,11.45
2017-07-20T00:16:10.483Z,11.46
2017-07-20T00:17:11.075Z,11.51
2017-07-20T00:18:10.795Z,11.44
2017-07-20T00:19:11.065Z,11.38
2017-07-20T00:20:11.050Z,11.39
2017-07-20T00:21:10.742Z,11.38
2017-07-20T00:22:10.735Z,11.41
2017-07-20T00:23:11.023Z,11.39
2017-07-20T00:24:11.016Z,11.31
2017-07-20T00:25:11.011Z,11.24
2017-07-20T00:26:11.006Z,11.31
2017-07-20T00:27:11.007Z,11.24
2017-07-20T00:28:10.983Z,11.27
2017-07-20T00:29:10.973Z,11.21
2017-07-20T00:30:10.971Z,11.17
2017-07-20T00:31:10.955Z,11.09
2017-07-20T00:32:10.660Z,11.11
2017-07-20T00:33:10.938Z,11.09
2017-07-20T00:34:10.634Z,11.08
2017-07-20T00:35:10.937Z,10.99
2017-07-20T00:36:10.922Z,10.98
2017-07-20T00:37:10.914Z,11.01
2017-07-20T00:38:10.911Z,11.02
2017-07-20T00:39:10.905Z,11.03
2017-07-20T00:40:10.898Z,11.02
2017-07-20T00:41:10.884Z,11.01
2017-07-20T00:42:10.887Z,10.95
2017-07-20T00:43:10.871Z,10.87
2017-07-20T00:44:10.864Z,10.91
2017-07-20T00:45:10.553Z,10.91
2017-07-20T00:46:10.542Z,10.87
2017-07-20T00:47:10.826Z,10.91
2017-07-20T00:48:10.520Z,10.95
2017-07-20T00:49:10.508Z,10.9
2017-07-20T00:50:10.813Z,10.83
2017-07-20T00:51:10.791Z,10.91
2017-07-20T00:52:10.807Z,10.94
2017-07-20T00:53:10.786Z,11.01
2017-07-20T00:54:10.773Z,10.87
2017-07-20T00:55:10.763Z,10.8
2017-07-20T00:56:10.755Z,10.84
2017-07-20T00:57:10.744Z,10.73
2017-07-20T00:58:10.432Z,10.68
2017-07-20T00:59:10.724Z,10.66
2017-07-20T01:00:10.725Z,10.65
2017-07-20T01:01:10.715Z,10.58
2017-07-20T01:02:10.704Z,10.66
2017-07-20T01:03:10.397Z,10.66
2017-07-20T01:04:10.687Z,10.73
2017-07-20T01:05:10.700Z,10.69
2017-07-20T01:06:10.664Z,10.65
2017-07-20T01:07:10.663Z,10.62
2017-07-20T01:08:10.660Z,10.57
2017-07-20T01:09:10.342Z,10.65
2017-07-20T01:10:10.331Z,10.66
2017-07-20T01:11:10.326Z,10.63
2017-07-20T01:12:10.630Z,10.65
2017-07-20T01:13:10.613Z,10.72
2017-07-20T01:14:10.621Z,10.76
2017-07-20T01:15:10.593Z,10.72
2017-07-20T01:16:10.585Z,10.66
2017-07-20T01:17:09.979Z,10.55
2017-07-20T01:18:10.574Z,10.63
2017-07-20T01:19:10.570Z,10.7
2017-07-20T01:20:10.548Z,10.6
2017-07-20T01:21:10.548Z,10.68
2017-07-20T01:22:10.534Z,10.58
2017-07-20T01:23:10.538Z,10.62
2017-07-20T01:24:10.210Z,10.68
2017-07-20T01:25:10.498Z,10.6
2017-07-20T01:26:10.204Z,10.63
2017-07-20T01:27:10.487Z,10.68
2017-07-20T01:28:10.473Z,10.57
2017-07-20T01:29:10.466Z,10.62
2017-07-20T01:30:10.464Z,10.63
2017-07-20T01:31:10.453Z,10.49
2017-07-20T01:32:10.445Z,10.57
2017-07-20T01:33:10.437Z,10.46
2017-07-20T01:34:10.429Z,10.54
2017-07-20T01:35:10.416Z,10.39
2017-07-20T01:36:10.418Z,10.46
2017-07-20T01:37:10.418Z,10.49
2017-07-20T01:38:10.396Z,10.43
2017-07-20T01:39:10.386Z,10.49
2017-07-20T01:40:10.384Z,10.49
2017-07-20T01:41:10.377Z,10.42
2017-07-20T01:42:10.357Z,10.31
2017-07-20T01:43:10.356Z,10.35
2017-07-20T01:44:10.343Z,10.2
2017-07-20T01:45:10.322Z,10.18
2017-07-20T01:46:10.324Z,10.32
2017-07-20T01:47:10.308Z,10.2
2017-07-20T01:48:10.308Z,10.24
2017-07-20T01:49:10.294Z,10.22
2017-07-20T01:50:09.982Z,10.26
2017-07-20T01:51:10.282Z,10.32
2017-07-20T01:52:09.962Z,10.22
2017-07-20T01:53:09.956Z,10.18
2017-07-20T01:54:09.946Z,10.13
2017-07-20T01:55:09.949Z,10.18
2017-07-20T01:56:10.230Z,10.17
2017-07-20T01:57:09.918Z,10.01
2017-07-20T01:58:10.222Z,10.01
2017-07-20T01:59:10.203Z,10.06
2017-07-20T02:00:10.190Z,10.01
2017-07-20T02:01:10.199Z,10.07
2017-07-20T02:02:10.177Z,10.02
2017-07-20T02:03:10.162Z,9.96
2017-07-20T02:04:09.864Z,9.99
2017-07-20T02:05:10.155Z,9.96
2017-07-20T02:06:10.140Z,9.99
2017-07-20T02:07:10.147Z,9.92
2017-07-20T02:08:10.136Z,9.95
2017-07-20T02:09:10.125Z,9.91
2017-07-20T02:10:10.106Z,9.98
2017-07-20T02:11:10.097Z,9.92
2017-07-20T02:12:10.081Z,9.83
2017-07-20T02:13:10.074Z,9.86
2017-07-20T02:14:10.067Z,9.88
2017-07-20T02:15:10.069Z,9.92
2017-07-20T02:16:10.067Z,9.86
2017-07-20T02:17:10.060Z,9.86
2017-07-20T02:18:10.049Z,9.85
2017-07-20T02:19:10.027Z,9.83
2017-07-20T02:20:10.019Z,9.81
2017-07-20T02:21:10.023Z,9.83
2017-07-20T02:22:10.011Z,9.92
2017-07-20T02:23:10.006Z,9.91
2017-07-20T02:24:09.684Z,9.85
2017-07-20T02:25:09.985Z,9.91
2017-07-20T02:26:09.965Z,9.89
2017-07-20T02:27:09.961Z,9.89
2017-07-20T02:28:09.642Z,9.89
2017-07-20T02:29:09.935Z,9.89
2017-07-20T02:30:09.958Z,9.88
2017-07-20T02:31:09.927Z,9.88
2017-07-20T02:32:09.918Z,9.91
2017-07-20T02:33:09.901Z,9.98
2017-07-20T02:34:09.904Z,10.14
2017-07-20T02:35:09.906Z,10.07
2017-07-20T02:36:09.580Z,10.18
2017-07-20T02:37:09.880Z,10.02
2017-07-20T02:38:09.874Z,10.04
2017-07-20T02:39:09.849Z,9.88
2017-07-20T02:40:09.851Z,9.89
2017-07-20T02:41:09.858Z,9.92
2017-07-20T02:42:09.845Z,9.83
2017-07-20T02:43:09.531Z,9.77
2017-07-20T02:44:09.516Z,9.7
2017-07-20T02:45:09.826Z,9.74
2017-07-20T02:46:09.806Z,9.85
2017-07-20T02:47:09.789Z,9.89
2017-07-20T02:48:09.795Z,9.92
2017-07-20T02:49:09.768Z,9.71
2017-07-20T02:50:09.772Z,9.7
2017-07-20T02:51:09.760Z,9.68
2017-07-20T02:52:09.754Z,9.77
2017-07-20T02:53:09.738Z,9.78
2017-07-20T02:54:09.741Z,9.89
2017-07-20T02:55:09.727Z,9.89
2017-07-20T02:56:09.718Z,9.89
2017-07-20T02:57:09.717Z,9.81
2017-07-20T02:58:09.394Z,9.74
2017-07-20T02:59:09.692Z,9.71
2017-07-20T03:00:09.695Z,9.73
2017-07-20T03:01:09.692Z,9.83
2017-07-20T03:02:09.671Z,9.81
2017-07-20T03:03:09.662Z,9.78
2017-07-20T03:04:09.645Z,9.62
2017-07-20T03:05:09.651Z,9.73
2017-07-20T03:06:09.635Z,9.71
2017-07-20T03:07:09.639Z,9.65
2017-07-20T03:08:09.625Z,9.63
2017-07-20T03:09:09.612Z,9.68
2017-07-20T03:10:09.688Z,9.6
2017-07-20T03:11:09.633Z,9.67
2017-07-20T03:12:09.578Z,9.6
2017-07-20T03:13:09.569Z,9.65
2017-07-20T03:14:09.565Z,9.65
2017-07-20T03:15:09.565Z,9.56
2017-07-20T03:16:09.565Z,9.5
2017-07-20T03:17:09.537Z,9.45
2017-07-20T03:18:09.533Z,9.49
2017-07-20T03:19:09.528Z,9.44
2017-07-20T03:20:09.212Z,9.37
2017-07-20T03:21:09.505Z,9.32
2017-07-20T03:22:09.205Z,9.3
2017-07-20T03:23:09.508Z,9.24
2017-07-20T03:24:09.474Z,9.27
2017-07-20T03:25:09.499Z,9.22
2017-07-20T03:26:09.162Z,9.3
2017-07-20T03:27:09.440Z,9.3
2017-07-20T03:28:09.440Z,9.23
2017-07-20T03:29:09.126Z,9.19
2017-07-20T03:30:09.429Z,9.23
2017-07-20T03:31:09.425Z,9.12
2017-07-20T03:32:09.402Z,9.1
2017-07-20T03:33:09.390Z,9.15
2017-07-20T03:34:09.391Z,9.15
2017-07-20T03:35:09.371Z,9.15
2017-07-20T03:36:09.377Z,9.13
2017-07-20T03:37:09.357Z,9.01
2017-07-20T03:38:09.349Z,8.88
2017-07-20T03:39:09.332Z,8.82
2017-07-20T03:40:09.337Z,8.71
2017-07-20T03:41:09.311Z,8.63
2017-07-20T03:42:09.309Z,8.65
2017-07-20T03:43:09.294Z,8.68
2017-07-20T03:44:09.291Z,8.68
2017-07-20T03:45:09.286Z,8.68
2017-07-20T03:46:08.980Z,8.71
2017-07-20T03:47:09.265Z,8.76
2017-07-20T03:48:09.251Z,8.75
2017-07-20T03:49:09.245Z,8.68
2017-07-20T03:50:09.252Z,8.86
2017-07-20T03:51:09.219Z,8.98
2017-07-20T03:52:09.223Z,9.16
2017-07-20T03:53:08.903Z,9.2
2017-07-20T03:54:09.192Z,9.19
2017-07-20T03:55:09.188Z,9.16
2017-07-20T03:56:08.869Z,9.13
2017-07-20T03:57:08.867Z,9.1
2017-07-20T03:58:08.847Z,9.12
2017-07-20T03:59:09.153Z,9.37
2017-07-20T04:00:09.134Z,9.73
2017-07-20T04:01:09.129Z,9.96
2017-07-20T04:02:09.126Z,10.11
2017-07-20T04:03:09.114Z,10.11
2017-07-20T04:04:09.101Z,10.16
2017-07-20T04:05:09.096Z,10.13
2017-07-20T04:06:09.070Z,9.88
2017-07-20T04:07:09.074Z,9.58
2017-07-20T04:08:09.087Z,9.37
2017-07-20T04:09:09.043Z,9.37
2017-07-20T04:10:09.050Z,9.24
2017-07-20T04:11:09.030Z,9.26
2017-07-20T04:12:09.019Z,9.19
2017-07-20T04:13:09.009Z,9.26
2017-07-20T04:14:09.005Z,9.24
2017-07-20T04:15:08.998Z,9.38
2017-07-20T04:16:08.984Z,9.48
2017-07-20T04:17:08.970Z,9.77
2017-07-20T04:18:08.668Z,9.93
2017-07-20T04:19:08.957Z,10.01
2017-07-20T04:20:08.951Z,10.07
2017-07-20T04:21:08.939Z,10.18
2017-07-20T04:22:08.928Z,10.25
2017-07-20T04:23:08.929Z,10.25
2017-07-20T04:24:08.907Z,10.18
2017-07-20T04:25:08.909Z,10.22
2017-07-20T04:26:08.884Z,10.31
2017-07-20T04:27:08.884Z,10.24
2017-07-20T04:28:08.884Z,10.18
2017-07-20T04:29:08.864Z,10.24
2017-07-20T04:30:08.854Z,10.25
2017-07-20T04:31:08.840Z,10.2
2017-07-20T04:32:08.830Z,10.32
2017-07-20T04:33:08.829Z,10.32
2017-07-20T04:34:08.822Z,10.42
2017-07-20T04:35:08.799Z,10.44
2017-07-20T04:36:08.790Z,10.44
2017-07-20T04:37:08.791Z,10.43
2017-07-20T04:38:08.778Z,10.51
2017-07-20T04:39:08.773Z,10.58
2017-07-20T04:40:08.453Z,10.6
2017-07-20T04:41:08.759Z,10.68
2017-07-20T04:42:08.767Z,10.7
2017-07-20T04:43:08.741Z,10.51
2017-07-20T04:44:08.737Z,10.51
2017-07-20T04:45:08.730Z,10.47
2017-07-20T04:46:08.713Z,10.46
2017-07-20T04:47:08.710Z,10.43
2017-07-20T04:48:08.717Z,10.42
2017-07-20T04:49:08.690Z,10.34
2017-07-20T04:50:08.672Z,10.32
2017-07-20T04:51:08.679Z,10.31
2017-07-20T04:52:08.679Z,10.36
2017-07-20T04:53:08.669Z,10.31
2017-07-20T04:54:08.653Z,10.29
2017-07-20T04:55:08.635Z,10.28
2017-07-20T04:56:08.641Z,10.25
2017-07-20T04:57:08.622Z,10.25
2017-07-20T04:58:08.616Z,10.24
2017-07-20T04:59:08.604Z,10.28
2017-07-20T05:00:08.608Z,10.28
2017-07-20T05:01:08.601Z,10.25
2017-07-20T05:02:08.585Z,10.32
2017-07-20T05:03:08.578Z,10.29
2017-07-20T05:04:08.561Z,10.39
2017-07-20T05:05:08.562Z,10.35
2017-07-20T05:06:08.559Z,10.38
2017-07-20T05:07:08.241Z,10.31
2017-07-20T05:08:08.540Z,10.34
2017-07-20T05:09:08.527Z,10.36
2017-07-20T05:10:08.528Z,10.34
2017-07-20T05:11:08.536Z,10.39
2017-07-20T05:12:08.497Z,10.47
2017-07-20T05:13:08.489Z,10.43
2017-07-20T05:14:08.480Z,10.39
2017-07-20T05:15:08.469Z,10.55
2017-07-20T05:16:08.470Z,10.69
2017-07-20T05:17:08.456Z,10.68
2017-07-20T05:18:08.462Z,10.8
2017-07-20T05:19:08.445Z,10.84
2017-07-20T05:20:08.440Z,10.84
2017-07-20T05:21:08.426Z,10.98
2017-07-20T05:22:08.121Z,10.9
2017-07-20T05:23:08.405Z,10.81
2017-07-20T05:24:08.415Z,10.81
2017-07-20T05:25:08.384Z,10.9
2017-07-20T05:26:08.393Z,11.03
2017-07-20T05:27:08.378Z,11.12
2017-07-20T05:28:08.378Z,11.19
2017-07-20T05:29:08.367Z,11.3
2017-07-20T05:30:08.363Z,11.31
2017-07-20T05:31:08.354Z,11.28
2017-07-20T05:32:08.336Z,11.42
2017-07-20T05:33:08.348Z,11.38
2017-07-20T05:34:08.339Z,11.08
2017-07-20T05:35:08.008Z,11.11
2017-07-20T05:36:08.322Z,11.16
2017-07-20T05:37:08.309Z,11.13
2017-07-20T05:38:08.302Z,11.23
2017-07-20T05:39:08.291Z,11.21
2017-07-20T05:40:08.284Z,11.35
2017-07-20T05:41:08.277Z,11.41
2017-07-20T05:42:08.284Z,11.44
2017-07-20T05:43:07.955Z,11.6
2017-07-20T05:44:08.255Z,11.57
2017-07-20T05:45:08.248Z,11.6
2017-07-20T05:46:07.935Z,11.66
2017-07-20T05:47:07.920Z,12.04
2017-07-20T05:48:08.221Z,11.87
2017-07-20T05:49:08.205Z,12
2017-07-20T05:50:07.913Z,11.96
2017-07-20T05:51:08.206Z,12.03
2017-07-20T05:52:07.897Z,12.03
2017-07-20T05:53:08.184Z,12.07
2017-07-20T05:54:07.886Z,12.33
2017-07-20T05:55:08.175Z,12.34
2017-07-20T05:56:08.161Z,12.55
2017-07-20T05:57:08.153Z,12.44
2017-07-20T05:58:08.153Z,12.22
2017-07-20T05:59:07.848Z,11.93
2017-07-20T06:00:07.839Z,11.42
2017-07-20T06:01:08.142Z,11.2
2017-07-20T06:02:07.821Z,11.28
2017-07-20T06:03:08.127Z,11.21
2017-07-20T06:04:08.118Z,10.84
2017-07-20T06:05:08.106Z,10.72
2017-07-20T06:06:08.094Z,10.73
2017-07-20T06:07:08.096Z,10.7
2017-07-20T06:08:08.094Z,11.44
2017-07-20T06:09:08.080Z,12.18
2017-07-20T06:10:07.772Z,12.79
2017-07-20T06:11:08.076Z,13.16
2017-07-20T06:12:07.756Z,13.73
2017-07-20T06:13:08.044Z,14.21
2017-07-20T06:14:07.749Z,14.45
2017-07-20T06:15:08.042Z,14.35
2017-07-20T06:16:08.040Z,14.69
2017-07-20T06:17:08.025Z,14.95
2017-07-20T06:18:08.024Z,14.91
2017-07-20T06:19:08.010Z,15.15
2017-07-20T06:20:08.010Z,15.27
2017-07-20T06:21:08.003Z,15.13
2017-07-20T06:22:07.996Z,15.25
2017-07-20T06:23:07.988Z,15.33
2017-07-20T06:24:07.380Z,15.35
2017-07-20T06:25:07.994Z,15.23
2017-07-20T06:26:07.974Z,15.31
2017-07-20T06:27:07.652Z,15.33
2017-07-20T06:28:07.975Z,15.44
2017-07-20T06:29:07.680Z,15.34
2017-07-20T06:30:07.958Z,15.49
2017-07-20T06:31:07.643Z,15.84
2017-07-20T06:32:07.935Z,15.95
2017-07-20T06:33:07.928Z,16.11
2017-07-20T06:34:07.617Z,16.08
2017-07-20T06:35:07.325Z,16.11
2017-07-20T06:36:07.614Z,16.34
2017-07-20T06:37:07.915Z,16.51
2017-07-20T06:38:07.914Z,16.66
2017-07-20T06:39:07.900Z,16.75
2017-07-20T06:40:07.891Z,16.92
2017-07-20T06:41:07.887Z,16.88
2017-07-20T06:42:07.880Z,16.95
2017-07-20T06:43:07.873Z,16.95
2017-07-20T06:44:07.568Z,17.02
2017-07-20T06:45:07.551Z,17.18
2017-07-20T06:46:07.864Z,17.17
2017-07-20T06:47:07.863Z,17.22
2017-07-20T06:48:07.851Z,17.28
2017-07-20T06:49:07.841Z,17.4
2017-07-20T06:50:07.842Z,17.18
2017-07-20T06:51:07.828Z,17.3
2017-07-20T06:52:07.817Z,17.27
2017-07-20T06:53:07.823Z,17.22
2017-07-20T06:54:07.807Z,17.21
2017-07-20T06:55:07.822Z,17.3
2017-07-20T06:56:07.802Z,17.3
2017-07-20T06:57:07.796Z,17.38
2017-07-20T06:58:07.490Z,17.36
2017-07-20T06:59:07.802Z,17.55
2017-07-20T07:00:07.832Z,17.6
2017-07-20T07:01:07.785Z,17.49
2017-07-20T07:02:07.772Z,17.49
2017-07-20T07:03:07.779Z,17.43
2017-07-20T07:04:07.776Z,17.36
2017-07-20T07:05:07.765Z,17.38
2017-07-20T07:06:07.771Z,17.32
2017-07-20T07:07:07.460Z,17.3
2017-07-20T07:08:07.754Z,16.88
2017-07-20T07:09:07.756Z,16.52
2017-07-20T07:10:07.746Z,16.29
2017-07-20T07:11:07.728Z,16.51
2017-07-20T07:12:07.440Z,16.78
2017-07-20T07:13:07.733Z,16.8
2017-07-20T07:14:07.721Z,16.88
2017-07-20T07:15:07.716Z,17.22
2017-07-20T07:16:07.711Z,17.38
2017-07-20T07:17:07.737Z,17.46
2017-07-20T07:18:07.700Z,17.55
2017-07-20T07:19:07.696Z,17.47
2017-07-20T07:20:07.391Z,17.24
2017-07-20T07:21:07.687Z,17.12
2017-07-20T07:22:07.690Z,16.9
2017-07-20T07:23:07.378Z,16.65
2017-07-20T07:24:07.679Z,16.8
2017-07-20T07:25:07.668Z,16.85
2017-07-20T07:26:07.364Z,16.91
2017-07-20T07:27:07.674Z,17.15
2017-07-20T07:28:07.650Z,17.36
2017-07-20T07:29:07.656Z,17.42
2017-07-20T07:30:07.350Z,17.68
2017-07-20T07:31:07.639Z,17.74
2017-07-20T07:32:07.644Z,17.68
2017-07-20T07:33:07.644Z,17.77
2017-07-20T07:34:07.329Z,17.65
2017-07-20T07:35:07.621Z,17.81
2017-07-20T07:36:07.623Z,18.02
2017-07-20T07:37:07.608Z,18.09
2017-07-20T07:38:07.620Z,18.38
2017-07-20T07:39:07.616Z,18.44
2017-07-20T07:40:07.625Z,18.5
2017-07-20T07:41:07.607Z,18.44
2017-07-20T07:42:07.291Z,18.68
2017-07-20T07:43:07.593Z,18.72
2017-07-20T07:44:07.590Z,18.89
2017-07-20T07:45:07.802Z,18.9
2017-07-20T07:46:07.582Z,18.84
2017-07-20T07:47:07.269Z,18.26
2017-07-20T07:48:07.258Z,17.79
2017-07-20T07:49:07.566Z,17.51
2017-07-20T07:50:07.268Z,17.54
2017-07-20T07:51:07.555Z,17.17
2017-07-20T07:52:07.572Z,16.98
2017-07-20T07:53:07.564Z,17.17
2017-07-20T07:54:07.547Z,17.14
2017-07-20T07:55:07.250Z,17.38
2017-07-20T07:56:07.537Z,16.52
2017-07-20T07:57:07.540Z,16.32
2017-07-20T07:58:07.230Z,16.8
2017-07-20T07:59:07.532Z,16.96
2017-07-20T08:00:07.526Z,16.77
2017-07-20T08:01:07.516Z,16.77
2017-07-20T08:02:07.522Z,16.85
2017-07-20T08:03:07.547Z,16.42
2017-07-20T08:04:07.500Z,16.06
2017-07-20T08:05:07.520Z,15.74
2017-07-20T08:06:07.507Z,16.01
2017-07-20T08:07:07.496Z,16.25
2017-07-20T08:08:07.182Z,16.63
2017-07-20T08:09:07.184Z,16.91
2017-07-20T08:10:07.485Z,16.96
2017-07-20T08:11:07.482Z,17.22
2017-07-20T08:12:07.474Z,16.88
2017-07-20T08:13:07.462Z,16.57
2017-07-20T08:14:07.472Z,16.54
2017-07-20T08:15:07.457Z,16.72
2017-07-20T08:16:07.456Z,16.34
2017-07-20T08:17:07.483Z,16.11
2017-07-20T08:18:07.443Z,16.33
2017-07-20T08:19:07.445Z,16.75
2017-07-20T08:20:07.481Z,16.91
2017-07-20T08:21:07.423Z,17.09
2017-07-20T08:22:07.427Z,17.2
2017-07-20T08:23:07.422Z,17.73
2017-07-20T08:24:07.410Z,18.26
2017-07-20T08:25:07.418Z,18.71
2017-07-20T08:26:07.098Z,19.15
2017-07-20T08:27:07.401Z,19.09
2017-07-20T08:28:07.399Z,18.69
2017-07-20T08:29:07.393Z,18.84
2017-07-20T08:30:06.782Z,18.76
2017-07-20T08:31:07.076Z,18.1
2017-07-20T08:32:07.378Z,18.32
2017-07-20T08:33:07.397Z,18.59
2017-07-20T08:34:07.370Z,18.57
2017-07-20T08:35:07.364Z,19.09
2017-07-20T08:36:07.368Z,19.34
2017-07-20T08:37:07.355Z,18.9
2017-07-20T08:38:07.351Z,18.38
2017-07-20T08:39:07.342Z,18.1
2017-07-20T08:40:07.347Z,17.63
2017-07-20T08:41:07.349Z,17.35
2017-07-20T08:42:07.347Z,17.12
2017-07-20T08:43:07.330Z,17.17
2017-07-20T08:44:07.322Z,17.18
2017-07-20T08:45:07.328Z,16.65
2017-07-20T08:46:07.325Z,16.17
2017-07-20T08:47:07.305Z,15.95
2017-07-20T08:48:06.709Z,15.68
2017-07-20T08:49:06.998Z,15.4
2017-07-20T08:50:07.299Z,15.25
2017-07-20T08:51:07.289Z,15.19
2017-07-20T08:52:07.286Z,14.94
2017-07-20T08:53:07.286Z,14.78
2017-07-20T08:54:07.304Z,14.64
2017-07-20T08:55:06.977Z,14.45
2017-07-20T08:56:07.262Z,14.41
2017-07-20T08:57:06.955Z,14.46
2017-07-20T08:58:07.244Z,14.72
2017-07-20T08:59:07.247Z,14.97
2017-07-20T09:00:07.244Z,15.2
2017-07-20T09:01:07.246Z,15.27
2017-07-20T09:02:07.233Z,15.41
2017-07-20T09:03:07.217Z,15.67
2017-07-20T09:04:07.226Z,15.96
2017-07-20T09:05:07.211Z,16.07
2017-07-20T09:06:06.893Z,16.34
2017-07-20T09:07:07.199Z,16.73
2017-07-20T09:08:07.188Z,16.87
2017-07-20T09:09:07.183Z,17.47
2017-07-20T09:10:06.870Z,17.49
2017-07-20T09:11:07.184Z,17.92
2017-07-20T09:12:06.867Z,17.54
2017-07-20T09:13:07.158Z,17.79
2017-07-20T09:14:07.159Z,17.6
2017-07-20T09:15:07.154Z,17.71
2017-07-20T09:16:06.842Z,17.45
2017-07-20T09:17:07.147Z,17.74
2017-07-20T09:18:06.841Z,18.05
2017-07-20T09:19:07.162Z,18.35
2017-07-20T09:20:06.829Z,18.65
2017-07-20T09:21:07.127Z,19.06
2017-07-20T09:22:07.121Z,19.07
2017-07-20T09:23:07.125Z,19.21
2017-07-20T09:24:07.108Z,19.25
2017-07-20T09:25:07.113Z,19.16
2017-07-20T09:26:07.103Z,19.01
2017-07-20T09:27:07.106Z,18.9
2017-07-20T09:28:07.100Z,18.72
2017-07-20T09:29:07.082Z,18.57
2017-07-20T09:30:07.295Z,18.71
2017-07-20T09:31:07.081Z,18.83
2017-07-20T09:32:07.082Z,18.74
2017-07-20T09:33:07.088Z,18.31
2017-07-20T09:34:07.088Z,18.07
2017-07-20T09:35:07.079Z,18.05
2017-07-20T09:36:07.074Z,18.14
2017-07-20T09:37:07.063Z,18.1
2017-07-20T09:38:07.057Z,18.1
2017-07-20T09:39:07.052Z,18.28
2017-07-20T09:40:07.045Z,18.04
2017-07-20T09:41:07.038Z,18.26
2017-07-20T09:42:07.043Z,18.1
2017-07-20T09:43:07.032Z,17.65
2017-07-20T09:44:07.035Z,17.74
2017-07-20T09:45:07.024Z,17.7
2017-07-20T09:46:07.019Z,17.22
2017-07-20T09:47:07.023Z,16.84
2017-07-20T09:48:07.016Z,16.23
2017-07-20T09:49:06.998Z,15.76
2017-07-20T09:50:07.000Z,15.55
2017-07-20T09:51:06.991Z,15.84
2017-07-20T09:52:06.995Z,15.8
2017-07-20T09:53:06.989Z,15.77
2017-07-20T09:54:06.987Z,15.7
2017-07-20T09:55:06.983Z,15.95
2017-07-20T09:56:06.960Z,16.03
2017-07-20T09:57:06.663Z,16.34
2017-07-20T09:58:06.967Z,16.57
2017-07-20T09:59:06.949Z,17.09
2017-07-20T10:00:06.540Z,17.68
2017-07-20T10:01:06.945Z,18.19
2017-07-20T10:02:06.936Z,17.87
2017-07-20T10:03:06.933Z,17.55
2017-07-20T10:04:06.931Z,17.45
2017-07-20T10:05:07.124Z,16.85
2017-07-20T10:06:06.914Z,16.63
2017-07-20T10:07:06.900Z,17.07
2017-07-20T10:08:06.901Z,17.53
2017-07-20T10:09:06.888Z,17.74
2017-07-20T10:10:06.586Z,18.59
2017-07-20T10:11:06.891Z,18.6
2017-07-20T10:12:06.874Z,18.25
2017-07-20T10:13:06.563Z,18.51
2017-07-20T10:14:06.878Z,18.56
2017-07-20T10:15:06.560Z,18.34
2017-07-20T10:16:06.560Z,18.21
2017-07-20T10:17:06.861Z,17.95
2017-07-20T10:18:06.553Z,17.38
2017-07-20T10:19:06.853Z,17.15
2017-07-20T10:20:06.542Z,16.62
2017-07-20T10:21:06.846Z,15.78
2017-07-20T10:22:06.830Z,15.3
2017-07-20T10:23:06.841Z,14.97
2017-07-20T10:24:06.827Z,14.57
2017-07-20T10:25:06.520Z,14.48
2017-07-20T10:26:06.812Z,14.31
2017-07-20T10:27:06.515Z,13.79
2017-07-20T10:28:06.798Z,13.38
2017-07-20T10:29:06.795Z,12.95
2017-07-20T10:30:06.798Z,12.7
2017-07-20T10:31:06.775Z,12.56
2017-07-20T10:32:06.471Z,12.51
2017-07-20T10:33:06.783Z,12.4
2017-07-20T10:34:06.466Z,12.43
2017-07-20T10:35:06.754Z,12.63
2017-07-20T10:36:06.755Z,12.62
2017-07-20T10:37:06.744Z,12.94
2017-07-20T10:38:06.737Z,12.96
2017-07-20T10:39:06.642Z,13.12
2017-07-20T10:40:06.947Z,13.13
2017-07-20T10:41:06.716Z,13.36
2017-07-20T10:42:06.708Z,13.36
2017-07-20T10:43:06.704Z,13.27
2017-07-20T10:44:06.898Z,13.01
2017-07-20T10:45:06.580Z,12.84
2017-07-20T10:46:06.680Z,12.59
2017-07-20T10:47:06.671Z,12.43
2017-07-20T10:48:06.668Z,12.23
2017-07-20T10:49:06.654Z,12.05
2017-07-20T10:50:06.655Z,11.88
2017-07-20T10:51:06.861Z,11.96
2017-07-20T10:52:06.651Z,12.07
2017-07-20T10:53:06.621Z,12
2017-07-20T10:54:06.625Z,11.9
2017-07-20T10:55:06.613Z,11.77
2017-07-20T10:56:06.615Z,11.69
2017-07-20T10:57:06.300Z,11.64
2017-07-20T10:58:06.590Z,11.6
2017-07-20T10:59:06.580Z,11.59
2017-07-20T11:00:06.277Z,11.41
2017-07-20T11:01:06.573Z,11.23
2017-07-20T11:02:06.557Z,11.12
2017-07-20T11:03:06.553Z,11.06
2017-07-20T11:04:06.544Z,11.12
2017-07-20T11:05:06.546Z,10.87
2017-07-20T11:06:06.530Z,10.6
2017-07-20T11:07:06.217Z,10.51
2017-07-20T11:08:06.514Z,10.35
2017-07-20T11:09:06.501Z,10.25
2017-07-20T11:10:06.500Z,10.36
2017-07-20T11:11:06.483Z,10.54
2017-07-20T11:12:06.479Z,10.69
2017-07-20T11:13:06.477Z,10.78
2017-07-20T11:14:06.159Z,10.6
2017-07-20T11:15:06.447Z,10.62
2017-07-20T11:16:06.431Z,10.49
2017-07-20T11:17:06.437Z,10.47
2017-07-20T11:18:06.422Z,10.18
2017-07-20T11:19:06.414Z,10.34
2017-07-20T11:20:06.413Z,10.52
2017-07-20T11:21:06.395Z,10.66
2017-07-20T11:22:06.399Z,10.63
2017-07-20T11:23:06.591Z,10.65
2017-07-20T11:24:19.747Z,10.76
2017-07-20T11:25:06.361Z,10.66
2017-07-20T11:26:06.052Z,10.63
2017-07-20T11:27:06.342Z,10.51
2017-07-20T11:28:06.329Z,10.29
2017-07-20T11:29:06.333Z,10.25
2017-07-20T11:30:06.016Z,10.2
2017-07-20T11:31:06.305Z,10.18
2017-07-20T11:32:06.294Z,10.24
2017-07-20T11:33:06.302Z,10.28
2017-07-20T11:34:06.272Z,10.39
2017-07-20T11:35:06.278Z,10.35
2017-07-20T11:36:06.253Z,10.38
2017-07-20T11:37:06.262Z,10.49
2017-07-20T11:38:06.236Z,10.42
2017-07-20T11:39:06.236Z,10.47
2017-07-20T11:40:06.229Z,10.32
2017-07-20T11:41:06.231Z,10.31
2017-07-20T11:42:06.197Z,10.22
2017-07-20T11:43:06.196Z,10.17
2017-07-20T11:44:06.191Z,10.17
2017-07-20T11:45:06.178Z,10.24
2017-07-20T11:46:06.171Z,10.2
2017-07-20T11:47:05.881Z,10.32
2017-07-20T11:48:06.155Z,10.38
2017-07-20T11:49:06.145Z,10.22
2017-07-20T11:50:05.832Z,10.29
2017-07-20T11:51:06.122Z,10.34
2017-07-20T11:52:06.115Z,10.42
2017-07-20T11:53:05.802Z,10.32
2017-07-20T11:54:05.788Z,10.26
2017-07-20T11:55:06.092Z,10.18
2017-07-20T11:56:19.666Z,10.1
2017-07-20T11:57:06.088Z,10.14
2017-07-20T11:58:05.762Z,10.13
2017-07-20T11:59:06.057Z,9.99
2017-07-20T12:00:06.050Z,9.88
2017-07-20T12:01:06.234Z,9.92
2017-07-20T12:02:05.714Z,9.63
2017-07-20T12:03:05.712Z,9.6
2017-07-20T12:04:06.007Z,9.6
2017-07-20T12:05:05.702Z,9.65
2017-07-20T12:06:05.979Z,9.65
2017-07-20T12:07:05.977Z,9.68
2017-07-20T12:08:05.967Z,9.77
2017-07-20T12:09:05.649Z,9.42
2017-07-20T12:10:05.955Z,9.37
2017-07-20T12:11:05.940Z,9.45
2017-07-20T12:12:05.928Z,9.32
2017-07-20T12:13:05.618Z,9.49
2017-07-20T12:14:05.907Z,9.8
2017-07-20T12:15:05.916Z,10.26
2017-07-20T12:16:05.884Z,10.78
2017-07-20T12:17:05.587Z,11.05
2017-07-20T12:18:05.873Z,11.26
2017-07-20T12:19:05.877Z,11.44
2017-07-20T12:20:05.852Z,11.44
2017-07-20T12:21:05.842Z,11.44
2017-07-20T12:22:05.543Z,11.62
2017-07-20T12:23:05.822Z,11.67
2017-07-20T12:24:05.820Z,11.46
2017-07-20T12:25:05.816Z,10.9
2017-07-20T12:26:05.806Z,10.51
2017-07-20T12:27:05.487Z,10.24
2017-07-20T12:28:05.493Z,9.99
2017-07-20T12:29:05.791Z,9.62
2017-07-20T12:30:05.468Z,9.23
